Time;durP1;ratioP1;P1;durP2;ratioP2;P2;SDS_P1;SDS_P2;PMS_P1;PMS_P2;Temp;Humidity;BMP_temperature;BMP_pressure;BME280_temperature;BME280_humidity;BME280_pressure;Samples;Min_cycle;Max_cycle;Signal;HPM_P1;HPM_P2
2022/01/27 00:01:56;;;;;;;16.50;13.23;;;2.60;99.90;;;;;;5072854;28;20200;-82
2022/01/27 00:04:33;;;;;;;17.13;14.50;;;2.60;99.90;;;;;;5108772;28;20286;-82
2022/01/27 00:07:02;;;;;;;13.95;11.27;;;2.60;99.90;;;;;;5108706;28;20249;-82
2022/01/27 00:09:44;;;;;;;19.90;14.63;;;2.60;99.90;;;;;;5096685;28;20278;-82
2022/01/27 00:12:17;;;;;;;14.82;12.20;;;2.60;99.90;;;;;;5094857;28;20228;-82
2022/01/27 00:14:53;;;;;;;16.70;12.77;;;2.60;99.90;;;;;;5095346;28;20302;-83
2022/01/27 00:17:28;;;;;;;16.30;12.80;;;2.60;99.90;;;;;;5095123;28;20215;-82
2022/01/27 00:19:58;;;;;;;15.43;13.00;;;2.60;99.90;;;;;;5094400;28;20223;-82
2022/01/27 00:22:27;;;;;;;19.80;14.45;;;2.60;99.90;;;;;;5094970;28;20196;-82
2022/01/27 00:24:56;;;;;;;21.47;15.00;;;2.60;99.90;;;;;;5094518;28;20265;-82
2022/01/27 00:27:24;;;;;;;17.43;12.97;;;2.60;99.90;;;;;;5095185;28;20233;-82
2022/01/27 00:29:52;;;;;;;21.63;13.97;;;2.60;99.90;;;;;;5094523;28;20204;-82
2022/01/27 00:32:21;;;;;;;17.17;13.67;;;2.70;99.90;;;;;;5095065;28;20207;-82
2022/01/27 00:34:49;;;;;;;19.67;14.35;;;2.60;99.90;;;;;;5094161;28;20240;-82
2022/01/27 00:37:19;;;;;;;15.70;12.77;;;2.70;99.90;;;;;;5094454;28;20220;-82
2022/01/27 00:39:47;;;;;;;20.40;13.53;;;2.70;99.90;;;;;;5094195;28;20264;-82
2022/01/27 00:42:15;;;;;;;18.23;13.43;;;2.70;99.90;;;;;;5094326;28;20201;-82
2022/01/27 00:44:44;;;;;;;21.00;14.77;;;2.70;99.90;;;;;;5094330;28;20226;-82
2022/01/27 00:47:12;;;;;;;13.87;12.40;;;2.70;99.90;;;;;;5094192;28;20211;-82
2022/01/27 00:49:41;;;;;;;23.90;13.60;;;2.70;99.90;;;;;;5093699;28;20196;-81
2022/01/27 00:52:15;;;;;;;16.50;13.43;;;2.70;99.90;;;;;;5094398;28;20201;-82
2022/01/27 00:54:45;;;;;;;21.20;14.43;;;2.60;99.90;;;;;;5094525;28;20308;-82
2022/01/27 00:57:22;;;;;;;24.30;15.03;;;2.60;99.90;;;;;;5093797;28;20259;-82
2022/01/27 00:59:55;;;;;;;17.80;14.20;;;2.60;99.90;;;;;;5093671;28;20216;-82
2022/01/27 01:02:35;;;;;;;16.50;13.40;;;2.60;99.90;;;;;;5094048;28;20296;-82
2022/01/27 01:05:18;;;;;;;20.33;14.38;;;2.60;99.90;;;;;;5094044;28;20224;-81
2022/01/27 01:07:50;;;;;;;19.40;14.13;;;2.60;99.90;;;;;;5089707;28;20203;-82
2022/01/27 01:15:53;;;;;;;19.13;14.87;;;2.60;99.90;;;;;;5093399;28;20276;-82
2022/01/27 01:18:36;;;;;;;16.23;12.50;;;2.60;99.90;;;;;;5094151;28;20240;-82
2022/01/27 01:21:26;;;;;;;19.37;14.13;;;2.60;99.90;;;;;;5092194;28;20288;-82
2022/01/27 01:29:50;;;;;;;19.77;14.80;;;2.60;99.90;;;;;;5093035;28;20353;-82
2022/01/27 01:32:30;;;;;;;15.23;13.07;;;2.60;99.90;;;;;;5093316;28;20197;-82
2022/01/27 01:34:59;;;;;;;18.08;13.80;;;2.60;99.90;;;;;;5093442;28;20255;-82
2022/01/27 01:37:28;;;;;;;21.42;14.65;;;2.60;99.90;;;;;;5094253;28;20199;-82
2022/01/27 01:39:56;;;;;;;18.67;13.77;;;2.60;99.90;;;;;;5092832;28;20209;-82
2022/01/27 01:42:26;;;;;;;20.33;14.57;;;2.60;99.90;;;;;;5093513;28;20283;-82
2022/01/27 01:44:54;;;;;;;21.33;14.65;;;2.60;99.90;;;;;;5093074;28;20228;-82
2022/01/27 01:47:25;;;;;;;20.57;15.23;;;2.60;99.90;;;;;;5093373;28;20208;-82
2022/01/27 01:49:53;;;;;;;18.87;15.07;;;2.60;99.90;;;;;;5092703;28;20292;-82
2022/01/27 01:52:23;;;;;;;19.80;15.07;;;2.70;99.90;;;;;;5093041;28;20212;-82
2022/01/27 01:54:51;;;;;;;22.80;15.00;;;2.60;99.90;;;;;;5093379;28;20220;-82
2022/01/27 01:57:19;;;;;;;17.70;14.13;;;2.70;99.90;;;;;;5092944;28;20264;-82
2022/01/27 01:59:49;;;;;;;19.42;13.93;;;2.60;99.90;;;;;;5087773;28;20224;-82
2022/01/27 02:02:18;;;;;;;19.17;14.00;;;2.60;99.90;;;;;;5093236;28;20282;-82
2022/01/27 02:04:46;;;;;;;17.80;13.53;;;2.60;99.90;;;;;;5092906;28;20299;-82
2022/01/27 02:07:28;;;;;;;18.27;13.73;;;2.60;99.90;;;;;;5093006;28;20200;-82
2022/01/27 02:10:09;;;;;;;20.53;14.60;;;2.60;99.90;;;;;;5089121;28;20188;-82
2022/01/27 02:18:23;;;;;;;20.73;14.30;;;2.60;99.90;;;;;;5030734;28;20219;-82
2022/01/27 02:20:53;;;;;;;26.20;16.63;;;2.60;99.90;;;;;;5069469;28;20279;-82
2022/01/27 02:23:21;;;;;;;19.50;13.73;;;2.60;99.90;;;;;;5092648;28;20204;-81
2022/01/27 02:25:50;;;;;;;20.33;15.43;;;2.60;99.90;;;;;;5092493;28;20280;-82
2022/01/27 02:28:18;;;;;;;22.63;13.82;;;2.60;99.90;;;;;;5092770;28;20271;-81
2022/01/27 02:30:46;;;;;;;21.63;16.20;;;2.60;99.90;;;;;;5092415;28;20207;-82
2022/01/27 02:33:31;;;;;;;32.07;15.47;;;2.60;99.90;;;;;;5092289;28;20318;-82
2022/01/27 02:36:04;;;;;;;20.77;15.20;;;2.60;99.90;;;;;;5092738;28;20216;-82
2022/01/27 02:38:32;;;;;;;18.43;13.77;;;2.60;99.90;;;;;;5093167;28;20295;-82
2022/01/27 02:41:04;;;;;;;20.67;15.73;;;2.60;99.90;;;;;;5093021;28;20279;-82
2022/01/27 02:43:32;;;;;;;17.37;13.30;;;2.70;99.90;;;;;;5094103;28;20197;-82
2022/01/27 02:46:06;;;;;;;17.53;13.73;;;2.60;99.90;;;;;;5093550;28;20220;-82
2022/01/27 02:48:35;;;;;;;17.70;13.23;;;2.70;99.90;;;;;;5084178;28;20196;-82
2022/01/27 02:51:05;;;;;;;20.50;14.13;;;2.60;99.90;;;;;;5093095;28;20224;-82
2022/01/27 02:53:33;;;;;;;19.07;13.77;;;2.60;99.90;;;;;;5092688;28;20207;-82
2022/01/27 02:56:01;;;;;;;19.03;14.47;;;2.60;99.90;;;;;;5093083;28;20305;-81
2022/01/27 02:58:30;;;;;;;17.93;15.63;;;2.60;99.90;;;;;;5082599;28;20222;-82
2022/01/27 03:00:58;;;;;;;25.37;16.07;;;2.60;99.90;;;;;;5092407;28;20211;-82
2022/01/27 03:03:26;;;;;;;19.90;14.20;;;2.60;99.90;;;;;;5092649;28;20231;-82
2022/01/27 03:05:55;;;;;;;17.40;14.70;;;2.60;99.90;;;;;;5093016;28;20219;-82
2022/01/27 03:08:25;;;;;;;31.30;15.43;;;2.60;99.90;;;;;;5093483;28;20254;-82
2022/01/27 03:10:59;;;;;;;19.20;14.63;;;2.60;99.90;;;;;;5092607;28;20200;-82
2022/01/27 03:13:30;;;;;;;17.13;13.50;;;2.60;99.90;;;;;;5093003;28;20230;-81
2022/01/27 03:15:58;;;;;;;22.57;13.77;;;2.60;99.90;;;;;;5092762;28;20232;-81
2022/01/27 03:18:27;;;;;;;21.17;14.80;;;2.60;99.90;;;;;;5092923;28;20235;-81
2022/01/27 03:20:55;;;;;;;19.47;13.97;;;2.60;99.90;;;;;;5092173;28;20208;-82
2022/01/27 03:23:25;;;;;;;18.87;13.60;;;2.60;99.90;;;;;;5093144;28;20199;-81
2022/01/27 03:25:53;;;;;;;19.30;13.47;;;2.50;99.90;;;;;;5093228;28;20216;-82
2022/01/27 03:28:25;;;;;;;21.10;14.97;;;2.50;99.90;;;;;;5092623;28;20288;-82
2022/01/27 03:30:53;;;;;;;15.80;12.90;;;2.60;99.90;;;;;;5091623;28;20275;-82
2022/01/27 03:33:21;;;;;;;19.90;14.75;;;2.60;99.90;;;;;;5093081;28;20201;-82
2022/01/27 03:35:50;;;;;;;21.60;14.47;;;2.60;99.90;;;;;;5092558;28;20299;-82
2022/01/27 03:38:18;;;;;;;22.90;16.03;;;2.60;99.90;;;;;;5093327;28;20256;-82
2022/01/27 03:40:48;;;;;;;29.80;15.40;;;2.60;99.90;;;;;;5091953;28;20312;-82
2022/01/27 03:43:16;;;;;;;20.30;14.37;;;2.60;99.90;;;;;;5093216;28;20284;-82
2022/01/27 03:45:45;;;;;;;20.93;15.13;;;2.50;99.90;;;;;;5096762;28;20217;-82
2022/01/27 03:48:13;;;;;;;22.60;15.70;;;2.50;99.90;;;;;;5096196;28;20205;-81
2022/01/27 03:50:41;;;;;;;20.63;14.70;;;2.50;99.90;;;;;;5096263;28;20227;-81
2022/01/27 03:53:10;;;;;;;17.40;12.50;;;2.50;99.90;;;;;;5096041;28;20288;-81
2022/01/27 03:55:38;;;;;;;24.27;15.33;;;2.50;99.90;;;;;;5096823;28;20323;-81
2022/01/27 03:58:08;;;;;;;18.80;14.13;;;2.50;99.90;;;;;;5096439;28;20213;-81
2022/01/27 04:00:37;;;;;;;19.23;13.87;;;2.50;99.90;;;;;;5095273;28;20221;-81
2022/01/27 04:03:08;;;;;;;17.57;13.70;;;2.60;99.90;;;;;;5096272;28;20200;-81
2022/01/27 04:05:40;;;;;;;19.23;14.00;;;2.50;99.90;;;;;;5096316;28;20232;-81
2022/01/27 04:08:10;;;;;;;20.20;13.33;;;2.50;99.90;;;;;;5096407;28;20295;-81
2022/01/27 04:10:39;;;;;;;27.97;14.53;;;2.50;99.90;;;;;;5089730;28;20197;-81
2022/01/27 04:13:10;;;;;;;16.93;13.33;;;2.50;99.90;;;;;;5096027;28;20264;-81
2022/01/27 04:15:44;;;;;;;18.17;14.60;;;2.50;99.90;;;;;;5096405;28;20239;-81
2022/01/27 04:18:12;;;;;;;17.43;13.67;;;2.50;99.90;;;;;;5095468;28;20228;-81
2022/01/27 04:20:43;;;;;;;17.17;12.93;;;2.50;99.90;;;;;;5095349;28;20227;-82
2022/01/27 04:23:11;;;;;;;17.17;12.83;;;2.50;99.90;;;;;;5096247;28;20203;-82
2022/01/27 04:25:40;;;;;;;24.50;14.77;;;2.60;99.90;;;;;;5096255;28;20225;-82
2022/01/27 04:28:13;;;;;;;20.38;12.95;;;2.60;99.90;;;;;;5095770;28;20294;-82
2022/01/27 04:30:41;;;;;;;16.60;12.23;;;2.60;99.90;;;;;;5095441;28;20341;-82
2022/01/27 04:33:09;;;;;;;15.03;12.77;;;2.60;99.90;;;;;;5095496;28;20276;-81
2022/01/27 04:35:43;;;;;;;16.60;13.47;;;2.60;99.90;;;;;;5095513;28;20211;-82
2022/01/27 04:41:10;;;;;;;16.93;13.37;;;2.50;99.90;;;;;;5059374;28;20229;-81
2022/01/27 04:43:46;;;;;;;15.07;12.98;;;2.50;99.90;;;;;;5095591;28;20279;-82
2022/01/27 04:46:23;;;;;;;22.50;15.40;;;2.50;99.90;;;;;;5095253;28;20212;-81
2022/01/27 04:48:55;;;;;;;18.93;14.00;;;2.50;99.90;;;;;;5095094;28;20271;-82
2022/01/27 04:51:24;;;;;;;19.30;13.87;;;2.50;99.90;;;;;;5095181;28;20201;-82
2022/01/27 04:53:58;;;;;;;17.80;13.10;;;2.40;99.90;;;;;;5095509;28;20250;-81
2022/01/27 04:56:29;;;;;;;20.53;13.63;;;2.40;99.90;;;;;;5095234;28;20224;-82
2022/01/27 04:59:02;;;;;;;25.20;14.93;;;2.40;99.90;;;;;;5094235;28;20211;-81
2022/01/27 05:01:35;;;;;;;24.90;13.53;;;2.40;99.90;;;;;;5094692;28;20229;-82
2022/01/27 05:04:09;;;;;;;28.93;12.87;;;2.40;99.90;;;;;;5095317;28;20200;-81
2022/01/27 05:06:38;;;;;;;20.43;14.60;;;2.40;99.90;;;;;;5095027;28;20286;-82
2022/01/27 05:09:06;;;;;;;17.83;13.43;;;2.40;99.90;;;;;;5094310;28;20242;-81
2022/01/27 05:11:38;;;;;;;16.43;12.63;;;2.30;99.90;;;;;;5095058;28;20223;-82
2022/01/27 05:14:13;;;;;;;16.50;13.17;;;2.30;99.90;;;;;;5095078;28;20196;-82
2022/01/27 05:16:42;;;;;;;24.10;13.83;;;2.20;99.90;;;;;;5095217;28;20223;-82
2022/01/27 05:19:10;;;;;;;17.97;13.83;;;2.20;99.90;;;;;;5094197;28;20288;-81
2022/01/27 05:21:38;;;;;;;20.70;14.03;;;2.30;99.90;;;;;;5093719;28;20224;-81
2022/01/27 05:24:08;;;;;;;16.40;12.60;;;2.20;99.90;;;;;;5094665;28;20201;-81
2022/01/27 05:26:38;;;;;;;29.57;15.03;;;2.20;99.90;;;;;;5094497;28;20231;-81
2022/01/27 05:29:09;;;;;;;17.90;12.80;;;2.20;99.90;;;;;;5094229;28;20197;-82
2022/01/27 05:31:38;;;;;;;21.50;12.20;;;2.20;99.90;;;;;;5094394;28;20224;-82
2022/01/27 05:34:07;;;;;;;17.13;12.77;;;2.20;99.90;;;;;;5094633;28;20207;-82
2022/01/27 05:36:35;;;;;;;18.27;13.07;;;2.20;99.90;;;;;;5093876;28;20221;-81
2022/01/27 05:39:04;;;;;;;15.27;11.57;;;2.20;99.90;;;;;;5094058;28;20287;-81
2022/01/27 05:41:32;;;;;;;17.90;13.93;;;2.20;99.90;;;;;;5094067;28;20306;-81
2022/01/27 05:44:00;;;;;;;22.57;14.00;;;2.20;99.90;;;;;;5094429;28;20204;-81
2022/01/27 05:46:30;;;;;;;21.67;14.20;;;2.20;99.90;;;;;;5094230;28;20224;-81
2022/01/27 05:48:59;;;;;;;19.90;13.87;;;2.20;99.90;;;;;;5093729;28;20289;-82
2022/01/27 05:51:27;;;;;;;23.97;15.63;;;2.20;99.90;;;;;;5093791;28;20196;-81
2022/01/27 05:53:55;;;;;;;25.00;15.13;;;2.20;99.90;;;;;;5094362;28;20311;-81
2022/01/27 05:56:24;;;;;;;19.33;14.33;;;2.20;99.90;;;;;;5094185;28;20227;-81
2022/01/27 05:58:52;;;;;;;14.93;13.10;;;2.30;99.90;;;;;;5093817;28;20219;-81
2022/01/27 06:01:20;;;;;;;26.63;15.97;;;2.30;99.90;;;;;;5093348;28;20232;-81
2022/01/27 06:03:50;;;;;;;28.43;16.03;;;2.30;99.90;;;;;;5094016;28;20234;-82
2022/01/27 06:06:18;;;;;;;23.77;16.77;;;2.30;99.90;;;;;;5093215;28;20223;-81
2022/01/27 06:08:46;;;;;;;23.13;16.30;;;2.30;99.90;;;;;;5093944;28;20204;-82
2022/01/27 06:11:15;;;;;;;29.57;19.03;;;2.30;99.90;;;;;;5093651;28;20192;-81
2022/01/27 06:13:43;;;;;;;27.23;16.80;;;2.30;99.90;;;;;;5093521;28;20222;-82
2022/01/27 06:16:13;;;;;;;23.00;16.87;;;2.30;99.90;;;;;;5093563;28;20219;-81
2022/01/27 06:18:42;;;;;;;19.63;13.33;;;2.30;99.90;;;;;;5093219;28;20228;-81
2022/01/27 06:21:13;;;;;;;21.40;15.73;;;2.30;99.90;;;;;;5093223;28;20258;-82
2022/01/27 06:23:41;;;;;;;22.63;14.33;;;2.20;99.90;;;;;;5093686;28;20279;-82
2022/01/27 06:26:09;;;;;;;19.93;14.30;;;2.20;99.90;;;;;;5093056;28;20251;-81
2022/01/27 06:28:38;;;;;;;22.00;15.40;;;2.20;99.90;;;;;;5093513;28;20204;-81
2022/01/27 06:31:07;;;;;;;23.92;17.23;;;2.20;99.90;;;;;;5093622;28;20210;-81
2022/01/27 06:33:35;;;;;;;25.13;18.20;;;2.20;99.90;;;;;;5093005;28;20204;-83
2022/01/27 06:36:04;;;;;;;23.83;16.57;;;2.20;99.90;;;;;;5089316;28;20312;-81
2022/01/27 06:38:33;;;;;;;22.87;16.23;;;2.20;99.90;;;;;;5090026;28;20224;-81
2022/01/27 06:41:02;;;;;;;24.53;17.57;;;2.20;99.90;;;;;;5093154;28;20212;-81
2022/01/27 06:43:30;;;;;;;27.53;16.13;;;2.20;99.90;;;;;;5093854;28;20243;-81
2022/01/27 06:45:59;;;;;;;20.83;16.90;;;2.20;99.90;;;;;;5110733;28;20243;-81
2022/01/27 06:48:27;;;;;;;25.50;18.23;;;2.10;99.90;;;;;;5113759;28;20218;-81
2022/01/27 06:50:56;;;;;;;31.37;18.13;;;2.10;99.90;;;;;;5113313;28;20267;-82
2022/01/27 06:53:25;;;;;;;20.03;16.43;;;2.10;99.90;;;;;;5113574;28;20207;-81
2022/01/27 06:55:54;;;;;;;24.03;16.07;;;2.10;99.90;;;;;;5105229;28;20216;-81
2022/01/27 06:58:23;;;;;;;31.00;17.80;;;2.10;99.90;;;;;;5093428;28;20219;-80
2022/01/27 07:00:51;;;;;;;22.87;17.03;;;2.10;99.90;;;;;;5092471;28;20231;-81
2022/01/27 07:03:19;;;;;;;23.93;17.40;;;2.10;99.90;;;;;;5081204;28;20212;-81
2022/01/27 07:05:49;;;;;;;24.53;17.23;;;2.10;99.90;;;;;;5073275;28;20256;-82
2022/01/27 07:08:17;;;;;;;20.13;15.83;;;2.10;99.90;;;;;;5092884;28;20283;-81
2022/01/27 07:10:45;;;;;;;27.60;19.07;;;2.10;99.90;;;;;;5092905;28;20192;-82
2022/01/27 07:13:15;;;;;;;26.13;18.87;;;2.10;99.90;;;;;;5093357;28;20208;-81
2022/01/27 07:15:44;;;;;;;22.13;17.90;;;2.10;99.90;;;;;;5093417;28;20311;-81
2022/01/27 07:18:12;;;;;;;24.73;18.50;;;2.10;99.90;;;;;;5092960;28;20201;-81
2022/01/27 07:20:40;;;;;;;27.13;18.80;;;2.10;99.90;;;;;;5096657;28;20281;-82
2022/01/27 07:23:09;;;;;;;22.40;17.00;;;2.10;99.90;;;;;;5097273;28;20196;-81
2022/01/27 07:25:38;;;;;;;26.83;18.87;;;2.20;99.90;;;;;;5096904;28;20230;-82
2022/01/27 07:28:06;;;;;;;18.77;13.60;;;2.20;99.90;;;;;;5096993;28;20195;-81
2022/01/27 07:30:36;;;;;;;21.13;15.68;;;2.20;99.90;;;;;;5097165;28;20200;-81
2022/01/27 07:33:04;;;;;;;27.93;19.47;;;2.30;99.90;;;;;;5097213;28;20197;-81
2022/01/27 07:35:33;;;;;;;27.57;18.97;;;2.30;99.90;;;;;;5096770;28;20227;-82
2022/01/27 07:38:01;;;;;;;21.83;17.97;;;2.40;99.90;;;;;;5097412;28;20295;-81
2022/01/27 07:40:30;;;;;;;22.77;16.50;;;2.40;99.90;;;;;;5096110;28;20264;-81
2022/01/27 07:43:15;;;;;;;28.60;18.47;;;2.40;99.90;;;;;;5097003;28;20193;-82
2022/01/27 07:45:46;;;;;;;22.90;16.93;;;2.50;99.90;;;;;;5096223;28;20307;-82
2022/01/27 07:48:14;;;;;;;32.33;16.27;;;2.50;99.90;;;;;;5097049;28;20287;-82
2022/01/27 07:50:43;;;;;;;23.00;18.23;;;2.50;99.90;;;;;;5076115;28;20200;-81
2022/01/27 07:53:12;;;;;;;22.40;15.40;;;2.60;99.90;;;;;;5087364;28;20284;-81
2022/01/27 07:55:40;;;;;;;22.90;17.00;;;2.60;99.90;;;;;;5096536;28;20216;-81
2022/01/27 07:58:09;;;;;;;22.50;16.57;;;2.60;99.90;;;;;;5096784;28;20261;-81
2022/01/27 08:00:47;;;;;;;23.85;17.30;;;2.70;99.90;;;;;;5095327;28;20201;-83
2022/01/27 08:03:20;;;;;;;21.25;16.10;;;2.70;99.90;;;;;;5091319;28;20189;-81
2022/01/27 08:05:49;;;;;;;19.73;15.63;;;2.70;99.90;;;;;;5096392;28;20220;-81
2022/01/27 08:08:17;;;;;;;22.87;16.83;;;2.80;99.90;;;;;;5096368;28;20239;-81
2022/01/27 08:10:48;;;;;;;21.30;14.75;;;2.80;99.90;;;;;;5095526;28;20207;-80
2022/01/27 08:13:16;;;;;;;22.75;16.23;;;2.90;99.90;;;;;;5089605;28;20197;-81
2022/01/27 08:15:45;;;;;;;22.30;16.10;;;3.00;99.90;;;;;;5089123;28;20212;-82
2022/01/27 08:18:35;;;;;;;21.00;16.40;;;3.00;99.90;;;;;;5076361;28;20204;-81
2022/01/27 08:21:03;;;;;;;17.30;15.23;;;3.10;99.90;;;;;;5090540;28;20196;-81
2022/01/27 08:23:32;;;;;;;18.57;13.63;;;3.10;99.90;;;;;;5095851;28;20196;-81
2022/01/27 08:26:05;;;;;;;20.03;15.77;;;3.10;99.90;;;;;;5095985;28;20234;-81
2022/01/27 08:28:35;;;;;;;20.10;14.87;;;3.10;99.90;;;;;;5095812;28;20205;-82
2022/01/27 08:31:07;;;;;;;18.95;14.30;;;3.20;99.90;;;;;;5081938;28;20205;-81
2022/01/27 08:33:40;;;;;;;22.75;16.27;;;3.30;99.90;;;;;;5093728;28;20203;-81
2022/01/27 08:36:10;;;;;;;19.85;13.95;;;3.30;99.90;;;;;;5082654;28;20213;-80
2022/01/27 08:38:43;;;;;;;20.80;15.23;;;3.30;99.90;;;;;;5094663;28;20208;-80
2022/01/27 08:41:12;;;;;;;24.30;16.00;;;3.40;99.90;;;;;;5094849;28;20232;-81
2022/01/27 08:43:40;;;;;;;23.43;15.47;;;3.50;99.90;;;;;;5095374;28;20235;-82
2022/01/27 08:46:08;;;;;;;19.00;14.65;;;3.50;99.90;;;;;;5095225;28;20220;-82
2022/01/27 08:48:39;;;;;;;17.05;13.80;;;3.70;99.90;;;;;;5095837;28;20204;-81
2022/01/27 08:51:11;;;;;;;20.63;14.15;;;3.70;99.90;;;;;;5095299;28;20204;-82
2022/01/27 08:53:55;;;;;;;18.65;14.20;;;3.80;99.90;;;;;;5093663;28;20197;-81
2022/01/27 08:56:23;;;;;;;18.60;13.95;;;3.90;99.90;;;;;;5084449;28;20244;-81
2022/01/27 08:58:51;;;;;;;16.13;13.82;;;4.00;99.90;;;;;;5094668;28;20208;-80
2022/01/27 09:01:21;;;;;;;23.90;13.38;;;4.20;99.90;;;;;;5078628;28;20232;-82
2022/01/27 09:03:49;;;;;;;14.15;11.82;;;4.30;99.90;;;;;;5074975;28;20209;-82
2022/01/27 09:06:19;;;;;;;16.92;12.10;;;4.50;99.90;;;;;;5075014;28;20251;-81
2022/01/27 09:08:48;;;;;;;18.80;13.45;;;4.60;99.90;;;;;;5074833;28;20269;-82
2022/01/27 09:11:16;;;;;;;16.98;12.60;;;4.70;99.90;;;;;;5081495;28;20201;-82
2022/01/27 09:13:45;;;;;;;15.20;12.50;;;4.80;99.90;;;;;;5076691;28;20240;-83
2022/01/27 09:16:13;;;;;;;15.23;12.38;;;4.90;99.90;;;;;;5074754;28;20239;-82
2022/01/27 09:18:42;;;;;;;15.60;11.20;;;4.90;99.90;;;;;;5074365;28;20288;-78
2022/01/27 09:21:18;;;;;;;14.85;11.20;;;5.10;99.90;;;;;;5075212;28;20207;-82
2022/01/27 09:23:48;;;;;;;20.10;13.82;;;5.20;99.90;;;;;;5074436;28;20227;-82
2022/01/27 09:26:39;;;;;;;14.48;10.82;;;5.10;99.90;;;;;;5074560;28;20229;-83
2022/01/27 09:29:07;;;;;;;22.88;12.02;;;5.10;99.90;;;;;;5084229;28;20200;-82
2022/01/27 09:31:36;;;;;;;15.75;11.85;;;5.10;99.90;;;;;;5083428;28;20200;-82
2022/01/27 09:34:05;;;;;;;12.43;11.10;;;5.20;99.90;;;;;;5083468;28;20211;-82
2022/01/27 09:36:33;;;;;;;15.35;11.98;;;5.30;99.90;;;;;;5093746;28;20301;-83
2022/01/27 09:39:03;;;;;;;16.75;10.27;;;5.40;99.90;;;;;;5094450;28;20281;-83
2022/01/27 09:41:37;;;;;;;15.25;11.55;;;5.50;99.90;;;;;;5093690;28;20204;-82
2022/01/27 09:44:09;;;;;;;15.63;10.32;;;5.50;99.90;;;;;;5094151;28;20300;-83
2022/01/27 09:46:40;;;;;;;11.07;9.73;;;5.60;99.90;;;;;;5094244;28;20221;-83
2022/01/27 09:49:14;;;;;;;11.80;9.75;;;5.70;99.90;;;;;;5094381;28;20201;-83
2022/01/27 09:51:45;;;;;;;13.38;10.60;;;5.70;99.90;;;;;;5094025;28;20265;-83
2022/01/27 09:54:17;;;;;;;11.30;9.60;;;5.90;99.90;;;;;;5093992;28;20204;-83
2022/01/27 09:56:46;;;;;;;11.95;9.32;;;5.90;99.90;;;;;;5094239;28;20288;-83
2022/01/27 09:59:17;;;;;;;12.52;9.65;;;5.90;99.90;;;;;;5073772;28;20257;-82
2022/01/27 10:01:58;;;;;;;16.75;10.68;;;5.90;99.90;;;;;;5084756;28;20202;-82
2022/01/27 10:04:43;;;;;;;11.93;9.07;;;6.00;99.90;;;;;;5076473;28;20200;-83
2022/01/27 10:07:12;;;;;;;13.77;9.77;;;6.00;99.90;;;;;;5094439;28;20266;-83
2022/01/27 10:09:59;;;;;;;11.02;9.05;;;6.00;99.90;;;;;;5093498;28;20280;-82
2022/01/27 10:12:31;;;;;;;11.20;9.23;;;6.10;99.90;;;;;;5094049;28;20196;-82
2022/01/27 10:15:03;;;;;;;12.07;9.02;;;6.30;99.90;;;;;;5094369;28;20231;-82
2022/01/27 10:17:34;;;;;;;12.02;8.82;;;6.50;99.90;;;;;;5093649;28;20196;-83
2022/01/27 10:20:02;;;;;;;10.65;9.00;;;6.60;99.90;;;;;;5093650;28;20231;-83
2022/01/27 10:22:33;;;;;;;12.10;9.52;;;6.70;99.90;;;;;;5092029;28;20208;-85
2022/01/27 10:25:09;;;;;;;12.20;9.30;;;6.80;99.90;;;;;;5093731;28;20290;-82
2022/01/27 10:27:56;;;;;;;11.52;8.93;;;6.90;99.90;;;;;;5094117;28;20210;-84
2022/01/27 10:30:38;;;;;;;9.20;8.30;;;7.00;99.90;;;;;;5093296;28;20204;-83
2022/01/27 10:33:07;;;;;;;10.18;8.55;;;7.20;99.90;;;;;;5092587;28;20200;-82
2022/01/27 10:35:37;;;;;;;8.45;6.32;;;7.30;99.90;;;;;;5092874;28;20221;-82
2022/01/27 10:38:08;;;;;;;8.38;6.95;;;7.30;99.90;;;;;;5093866;28;20195;-82
2022/01/27 10:40:41;;;;;;;9.00;7.82;;;7.50;99.90;;;;;;5092883;28;20211;-82
2022/01/27 10:43:12;;;;;;;6.10;4.47;;;7.70;99.90;;;;;;5093561;28;20308;-82
2022/01/27 10:46:00;;;;;;;13.52;7.25;;;7.70;99.90;;;;;;5090904;28;20231;-84
2022/01/27 10:48:32;;;;;;;11.60;7.90;;;7.90;99.90;;;;;;5083079;28;20204;-84
2022/01/27 10:51:18;;;;;;;12.75;7.85;;;8.20;99.90;;;;;;5092922;28;20208;-84
2022/01/27 10:53:55;;;;;;;10.90;7.50;;;8.50;99.90;;;;;;5084097;28;20284;-84
2022/01/27 10:56:27;;;;;;;10.30;8.77;;;9.10;99.90;;;;;;5093711;28;20315;-83
2022/01/27 10:58:57;;;;;;;13.23;8.30;;;9.50;99.10;;;;;;5092507;28;20224;-83
2022/01/27 11:01:32;;;;;;;10.30;9.25;;;9.40;98.70;;;;;;5092315;28;20299;-82
2022/01/27 11:04:02;;;;;;;10.90;9.25;;;9.30;98.00;;;;;;5086492;28;20212;-82
2022/01/27 11:06:33;;;;;;;10.57;9.05;;;9.70;98.40;;;;;;5092908;28;20267;-82
2022/01/27 11:09:07;;;;;;;11.18;9.38;;;9.80;97.00;;;;;;5093092;28;20226;-83
2022/01/27 11:11:39;;;;;;;13.38;8.68;;;9.60;96.40;;;;;;5093251;28;20219;-82
2022/01/27 11:14:08;;;;;;;10.45;8.68;;;9.80;96.70;;;;;;5090290;28;20355;-82
2022/01/27 11:16:40;;;;;;;11.93;8.68;;;9.90;95.50;;;;;;5092783;28;20299;-82
2022/01/27 11:19:36;;;;;;;10.85;8.50;;;9.50;95.80;;;;;;5092824;28;20279;-82
2022/01/27 11:22:10;;;;;;;11.90;9.73;;;9.60;96.10;;;;;;5093476;28;20279;-82
2022/01/27 11:25:07;;;;;;;13.52;8.13;;;9.50;94.50;;;;;;5092990;28;20208;-82
2022/01/27 11:27:39;;;;;;;18.20;9.85;;;9.30;95.70;;;;;;5092873;28;20287;-82
2022/01/27 11:30:12;;;;;;;7.50;6.70;;;9.50;95.10;;;;;;5072461;28;20212;-82
2022/01/27 11:32:46;;;;;;;10.15;8.52;;;9.30;94.30;;;;;;5091504;28;20204;-82
2022/01/27 11:35:19;;;;;;;10.18;8.82;;;9.10;94.90;;;;;;5093120;28;20247;-82
2022/01/27 11:37:51;;;;;;;11.27;8.48;;;8.90;96.10;;;;;;5089997;28;20280;-82
2022/01/27 11:40:20;;;;;;;13.77;8.68;;;9.10;95.40;;;;;;5092463;28;20283;-83
2022/01/27 11:43:33;;;;;;;9.70;7.97;;;9.50;95.30;;;;;;5092799;28;20292;-82
2022/01/27 11:46:15;;;;;;;9.10;7.93;;;9.80;94.40;;;;;;5093203;28;20228;-83
2022/01/27 11:48:43;;;;;;;7.45;6.63;;;10.00;93.30;;;;;;5092550;28;20268;-82
2022/01/27 11:51:13;;;;;;;13.85;8.38;;;10.00;93.00;;;;;;5093101;28;20267;-82
2022/01/27 11:53:43;;;;;;;8.90;7.97;;;9.50;92.80;;;;;;5092931;28;20296;-83
2022/01/27 11:56:37;;;;;;;8.50;7.65;;;9.70;93.90;;;;;;5092923;28;20304;-83
2022/01/27 11:59:09;;;;;;;8.40;7.00;;;9.90;92.70;;;;;;5092416;28;20289;-82
2022/01/27 12:01:38;;;;;;;12.93;8.38;;;9.80;91.90;;;;;;5092806;28;20204;-82
2022/01/27 12:04:15;;;;;;;9.65;7.53;;;9.90;92.40;;;;;;5093066;28;20228;-83
2022/01/27 12:07:05;;;;;;;7.65;6.63;;;10.00;90.90;;;;;;5096737;28;20235;-82
2022/01/27 12:09:36;;;;;;;9.52;7.35;;;10.00;90.50;;;;;;5093888;28;20217;-83
2022/01/27 12:12:12;;;;;;;7.25;6.60;;;10.20;90.90;;;;;;5096204;28;20200;-82
2022/01/27 12:15:07;;;;;;;8.38;7.53;;;10.40;90.10;;;;;;5096055;28;20275;-82
2022/01/27 12:17:35;;;;;;;6.70;6.00;;;10.20;88.00;;;;;;5076021;28;20206;-82
2022/01/27 12:20:09;;;;;;;7.38;6.55;;;10.10;89.80;;;;;;5075816;28;20209;-83
2022/01/27 12:23:15;;;;;;;6.90;6.13;;;10.60;86.80;;;;;;5075816;28;20208;-82
2022/01/27 12:25:51;;;;;;;7.95;6.10;;;10.80;84.10;;;;;;5014214;28;20238;-82
2022/01/27 12:28:20;;;;;;;6.45;5.78;;;10.70;84.80;;;;;;5030332;28;20206;-81
2022/01/27 12:31:00;;;;;;;6.75;5.43;;;10.80;83.30;;;;;;5067801;28;20299;-82
2022/01/27 12:33:29;;;;;;;5.60;4.75;;;10.90;82.20;;;;;;5085882;28;20216;-83
2022/01/27 12:36:03;;;;;;;7.57;5.22;;;10.80;79.50;;;;;;5093934;28;20231;-81
2022/01/27 12:38:39;;;;;;;7.47;5.38;;;10.80;80.30;;;;;;5090653;28;20280;-80
2022/01/27 12:41:07;;;;;;;5.78;4.85;;;10.90;79.60;;;;;;5091361;28;20208;-81
2022/01/27 12:43:35;;;;;;;4.63;4.22;;;11.00;78.50;;;;;;5095636;28;20205;-81
2022/01/27 12:46:09;;;;;;;5.38;4.88;;;11.10;78.20;;;;;;5094690;28;20262;-80
2022/01/27 12:48:47;;;;;;;6.20;5.55;;;10.80;77.00;;;;;;5094422;28;20223;-81
2022/01/27 12:51:56;;;;;;;9.23;6.57;;;10.60;78.20;;;;;;5094596;28;20207;-81
2022/01/27 12:54:28;;;;;;;6.78;5.40;;;10.60;78.30;;;;;;5094520;28;20200;-81
2022/01/27 12:56:57;;;;;;;8.00;5.03;;;10.60;78.10;;;;;;5094628;28;20287;-82
2022/01/27 12:59:30;;;;;;;6.00;5.40;;;10.40;78.20;;;;;;5093419;28;20249;-80
2022/01/27 13:02:02;;;;;;;9.45;5.95;;;10.80;78.30;;;;;;5095572;28;20300;-81
2022/01/27 13:04:31;;;;;;;6.00;5.43;;;11.30;77.00;;;;;;5094898;28;20295;-81
2022/01/27 13:07:00;;;;;;;6.07;5.32;;;11.40;74.80;;;;;;5095299;28;20223;-81
2022/01/27 13:09:29;;;;;;;6.43;5.07;;;11.20;74.70;;;;;;5094892;28;20279;-80
2022/01/27 13:12:00;;;;;;;5.43;4.78;;;10.90;74.50;;;;;;5095318;28;20211;-81
2022/01/27 13:14:28;;;;;;;8.20;6.22;;;10.90;75.00;;;;;;5094974;28;20279;-80
2022/01/27 13:17:01;;;;;;;8.57;5.65;;;10.70;74.40;;;;;;5093022;28;20197;-80
2022/01/27 13:19:42;;;;;;;6.78;5.50;;;10.80;76.40;;;;;;5094286;28;20283;-81
2022/01/27 13:22:16;;;;;;;4.63;4.22;;;10.90;74.40;;;;;;5095207;28;20224;-81
2022/01/27 13:24:48;;;;;;;5.90;5.10;;;10.80;75.00;;;;;;5093335;28;20300;-80